createdAt,value
2018-11-25T00:00:45.365Z,28.63
2018-11-25T00:01:45.263Z,28.34
2018-11-25T00:02:45.179Z,28.44
2018-11-25T00:03:45.065Z,28.15
2018-11-25T00:04:44.965Z,28.25
2018-11-25T00:05:44.862Z,28.25
2018-11-25T00:06:44.765Z,28.15
2018-11-25T00:07:44.678Z,28.72
2018-11-25T00:08:44.562Z,28.44
2018-11-25T00:09:44.467Z,28.53
2018-11-25T00:10:44.361Z,28.44
2018-11-25T00:11:44.262Z,28.53
2018-11-25T00:12:44.175Z,28.34
2018-11-25T00:13:44.062Z,28.06
2018-11-25T00:14:43.960Z,28.15
2018-11-25T00:15:43.865Z,28.06
2018-11-25T00:16:43.761Z,27.87
2018-11-25T00:17:43.680Z,27.68
2018-11-25T00:18:43.560Z,27.39
2018-11-25T00:19:43.462Z,27.39
2018-11-25T00:20:43.360Z,27.30
2018-11-25T00:21:43.264Z,27.58
2018-11-25T00:22:43.180Z,27.11
2018-11-25T00:23:43.059Z,27.20
2018-11-25T00:24:42.960Z,26.82
2018-11-25T00:25:42.860Z,27.20
2018-11-25T00:26:42.762Z,27.30
2018-11-25T00:27:42.674Z,26.82
2018-11-25T00:28:42.563Z,26.73
2018-11-25T00:29:42.458Z,26.73
2018-11-25T00:30:42.360Z,27.11
2018-11-25T00:31:42.257Z,27.01
2018-11-25T00:32:42.179Z,26.26
2018-11-25T00:33:42.162Z,26.45
2018-11-25T00:34:41.955Z,26.35
2018-11-25T00:35:41.856Z,26.35
2018-11-25T00:36:41.760Z,26.35
2018-11-25T00:37:48.039Z,26.45
2018-11-25T00:38:41.557Z,26.54
2018-11-25T00:39:41.461Z,26.45
2018-11-25T00:40:41.464Z,26.64
2018-11-25T00:41:41.257Z,26.54
2018-11-25T00:42:41.166Z,26.73
2018-11-25T00:43:41.073Z,26.64
2018-11-25T00:44:40.956Z,26.64
2018-11-25T00:45:40.857Z,26.73
2018-11-25T00:46:40.753Z,26.92
2018-11-25T00:47:40.764Z,26.73
2018-11-25T00:48:40.572Z,26.64
2018-11-25T00:49:40.454Z,26.54
2018-11-25T00:50:40.360Z,26.64
2018-11-25T00:51:40.257Z,26.54
2018-11-25T00:52:40.157Z,26.82
2018-11-25T00:53:40.069Z,26.82
2018-11-25T00:54:40.076Z,26.92
2018-11-25T00:55:39.854Z,26.82
2018-11-25T00:56:39.758Z,26.54
2018-11-25T00:57:39.657Z,26.73
2018-11-25T00:58:39.569Z,26.54
2018-11-25T00:59:39.451Z,26.73
2018-11-25T01:00:39.353Z,26.82
2018-11-25T01:01:39.357Z,26.73
2018-11-25T01:02:39.155Z,26.73
2018-11-25T01:03:39.068Z,26.73
2018-11-25T01:04:38.956Z,26.45
2018-11-25T01:05:38.850Z,26.45
2018-11-25T01:06:38.758Z,26.64
2018-11-25T01:07:38.656Z,26.64
2018-11-25T01:08:38.678Z,26.35
2018-11-25T01:09:38.457Z,26.45
2018-11-25T01:10:38.351Z,26.45
2018-11-25T01:11:38.254Z,26.35
2018-11-25T01:12:38.153Z,26.35
2018-11-25T01:13:38.066Z,26.45
2018-11-25T01:14:37.953Z,26.26
2018-11-25T01:15:37.953Z,26.82
2018-11-25T01:16:37.752Z,26.73
2018-11-25T01:17:37.652Z,26.92
2018-11-25T01:18:37.569Z,27.01
2018-11-25T01:19:37.451Z,28.06
2018-11-25T01:20:37.349Z,28.63
2018-11-25T01:21:37.251Z,29.86
2018-11-25T01:22:37.254Z,29.57
2018-11-25T01:23:37.069Z,28.81
2018-11-25T01:24:36.950Z,28.53
2018-11-25T01:25:36.849Z,28.15
2018-11-25T01:26:36.749Z,27.58
2018-11-25T01:27:36.648Z,27.39
2018-11-25T01:28:36.563Z,27.58
2018-11-25T01:29:36.557Z,27.39
2018-11-25T01:30:36.348Z,26.73
2018-11-25T01:31:36.270Z,26.82
2018-11-25T01:32:36.147Z,26.26
2018-11-25T01:33:36.068Z,26.45
2018-11-25T01:34:35.949Z,26.45
2018-11-25T01:35:35.845Z,26.82
2018-11-25T01:36:35.844Z,26.73
2018-11-25T01:37:35.645Z,26.45
2018-11-25T01:38:35.561Z,26.73
2018-11-25T01:39:35.449Z,26.35
2018-11-25T01:40:35.348Z,26.16
2018-11-25T01:41:35.241Z,26.26
2018-11-25T01:42:35.288Z,25.78
2018-11-25T01:43:35.059Z,25.68
2018-11-25T01:44:34.942Z,25.49
2018-11-25T01:45:34.842Z,25.12
2018-11-25T01:46:34.741Z,25.21
2018-11-25T01:47:34.643Z,25.21
2018-11-25T01:48:34.554Z,25.21
2018-11-25T01:49:34.442Z,25.40
2018-11-25T01:50:34.340Z,25.49
2018-11-25T01:51:34.240Z,25.49
2018-11-25T01:52:34.145Z,25.40
2018-11-25T01:53:34.053Z,25.40
2018-11-25T01:54:33.939Z,25.02
2018-11-25T01:55:33.840Z,25.02
2018-11-25T01:56:33.737Z,25.02
2018-11-25T01:57:33.638Z,25.21
2018-11-25T01:58:33.555Z,24.84
2018-11-25T01:59:33.439Z,25.31
2018-11-25T02:00:33.342Z,24.27
2018-11-25T02:01:33.238Z,25.12
2018-11-25T02:02:33.137Z,24.55
2018-11-25T02:03:33.055Z,24.93
2018-11-25T02:04:32.936Z,24.74
2018-11-25T02:05:32.836Z,25.21
2018-11-25T02:06:32.737Z,25.21
2018-11-25T02:07:32.634Z,25.78
2018-11-25T02:08:32.549Z,25.31
2018-11-25T02:09:32.432Z,26.26
2018-11-25T02:10:32.334Z,26.54
2018-11-25T02:11:32.234Z,26.73
2018-11-25T02:12:32.133Z,26.26
2018-11-25T02:13:32.046Z,26.73
2018-11-25T02:14:31.931Z,26.92
2018-11-25T02:15:31.833Z,26.82
2018-11-25T02:16:31.729Z,26.64
2018-11-25T02:17:31.632Z,26.82
2018-11-25T02:18:31.549Z,26.82
2018-11-25T02:19:31.433Z,26.35
2018-11-25T02:20:31.327Z,26.35
2018-11-25T02:21:31.227Z,26.35
2018-11-25T02:22:31.130Z,26.92
2018-11-25T02:23:31.046Z,26.64
2018-11-25T02:24:30.925Z,26.92
2018-11-25T02:25:30.829Z,26.64
2018-11-25T02:26:30.727Z,26.64
2018-11-25T02:27:30.628Z,26.82
2018-11-25T02:28:30.526Z,26.92
2018-11-25T02:29:30.451Z,26.54
2018-11-25T02:30:30.325Z,26.64
2018-11-25T02:31:30.223Z,26.45
2018-11-25T02:32:30.125Z,26.64
2018-11-25T02:33:30.024Z,26.73
2018-11-25T02:34:29.937Z,26.64
2018-11-25T02:35:29.824Z,27.01
2018-11-25T02:36:29.720Z,26.73
2018-11-25T02:37:29.622Z,26.73
2018-11-25T02:38:29.526Z,27.20
2018-11-25T02:39:29.437Z,27.20
2018-11-25T02:40:29.322Z,26.73
2018-11-25T02:41:29.225Z,27.11
2018-11-25T02:42:29.120Z,26.64
2018-11-25T02:43:29.022Z,27.01
2018-11-25T02:44:28.933Z,27.11
2018-11-25T02:45:28.821Z,27.20
2018-11-25T02:46:28.716Z,27.39
2018-11-25T02:47:28.616Z,27.96
2018-11-25T02:48:28.521Z,27.87
2018-11-25T02:49:28.434Z,27.87
2018-11-25T02:50:28.319Z,27.68
2018-11-25T02:51:28.215Z,27.87
2018-11-25T02:52:28.114Z,27.77
2018-11-25T02:53:28.015Z,27.87
2018-11-25T02:54:27.927Z,27.96
2018-11-25T02:55:27.815Z,28.15
2018-11-25T02:56:27.710Z,27.68
2018-11-25T02:57:27.620Z,27.96
2018-11-25T02:58:27.514Z,28.15
2018-11-25T02:59:27.424Z,27.87
2018-11-25T03:00:27.309Z,28.53
2018-11-25T03:01:27.210Z,28.06
2018-11-25T03:02:27.110Z,28.53
2018-11-25T03:03:27.007Z,27.96
2018-11-25T03:04:26.922Z,28.15
2018-11-25T03:05:26.807Z,27.49
2018-11-25T03:06:26.714Z,28.15
2018-11-25T03:07:26.603Z,28.44
2018-11-25T03:08:26.501Z,28.15
2018-11-25T03:09:26.424Z,28.06
2018-11-25T03:10:26.299Z,28.15
2018-11-25T03:11:26.199Z,28.06
2018-11-25T03:12:26.097Z,27.96
2018-11-25T03:13:25.998Z,28.34
2018-11-25T03:14:25.914Z,28.53
2018-11-25T03:15:25.798Z,28.53
2018-11-25T03:16:25.695Z,28.53
2018-11-25T03:17:25.596Z,28.72
2018-11-25T03:18:25.498Z,28.91
2018-11-25T03:19:25.408Z,28.91
2018-11-25T03:20:25.402Z,29.00
2018-11-25T03:21:25.206Z,28.91
2018-11-25T03:22:25.096Z,28.72
2018-11-25T03:23:24.990Z,28.72
2018-11-25T03:24:24.906Z,28.81
2018-11-25T03:25:24.786Z,29.00
2018-11-25T03:26:24.699Z,28.91
2018-11-25T03:27:24.707Z,28.91
2018-11-25T03:28:24.487Z,28.81
2018-11-25T03:29:24.403Z,29.29
2018-11-25T03:30:24.285Z,28.91
2018-11-25T03:31:24.184Z,29.00
2018-11-25T03:32:24.087Z,29.00
2018-11-25T03:33:23.987Z,29.19
2018-11-25T03:34:23.998Z,29.38
2018-11-25T03:35:23.790Z,29.29
2018-11-25T03:36:23.678Z,29.10
2018-11-25T03:37:23.579Z,29.19
2018-11-25T03:38:23.481Z,29.48
2018-11-25T03:39:23.393Z,29.76
2018-11-25T03:40:23.279Z,29.76
2018-11-25T03:41:23.284Z,30.05
2018-11-25T03:42:23.078Z,30.52
2018-11-25T03:43:22.976Z,30.43
2018-11-25T03:44:22.894Z,30.80
2018-11-25T03:45:22.775Z,30.99
2018-11-25T03:46:22.675Z,31.28
2018-11-25T03:47:22.572Z,32.23
2018-11-25T03:48:22.574Z,32.51
2018-11-25T03:49:22.386Z,32.89
2018-11-25T03:50:22.270Z,33.37
2018-11-25T03:51:22.172Z,33.94
2018-11-25T03:52:22.067Z,34.22
2018-11-25T03:53:21.967Z,33.84
2018-11-25T03:54:21.896Z,33.94
2018-11-25T03:55:21.766Z,34.12
2018-11-25T03:56:21.664Z,34.03
2018-11-25T03:57:21.566Z,34.12
2018-11-25T03:58:21.463Z,34.50
2018-11-25T03:59:21.379Z,34.50
2018-11-25T04:00:21.267Z,34.31
2018-11-25T04:01:21.166Z,34.22
2018-11-25T04:02:21.063Z,34.03
2018-11-25T04:03:20.974Z,33.94
2018-11-25T04:04:20.875Z,34.50
2018-11-25T04:05:20.761Z,34.22
2018-11-25T04:06:20.661Z,34.98
2018-11-25T04:07:20.559Z,35.07
2018-11-25T04:08:20.456Z,35.26
2018-11-25T04:09:20.378Z,35.36
2018-11-25T04:10:20.255Z,35.55
2018-11-25T04:11:20.155Z,34.78
2018-11-25T04:12:20.057Z,34.50
2018-11-25T04:13:19.953Z,34.88
2018-11-25T04:14:19.857Z,34.59
2018-11-25T04:15:19.771Z,35.17
2018-11-25T04:16:19.652Z,35.26
2018-11-25T04:17:19.556Z,36.02
2018-11-25T04:18:19.454Z,36.40
2018-11-25T04:19:19.356Z,36.30
2018-11-25T04:20:19.268Z,36.78
2018-11-25T04:21:19.151Z,36.59
2018-11-25T04:22:19.055Z,36.87
2018-11-25T04:23:18.956Z,37.06
2018-11-25T04:24:18.851Z,36.68
2018-11-25T04:25:18.772Z,36.68
2018-11-25T04:26:18.653Z,36.97
2018-11-25T04:27:18.551Z,37.82
2018-11-25T04:28:18.451Z,38.29
2018-11-25T04:29:18.351Z,38.20
2018-11-25T04:30:18.267Z,37.92
2018-11-25T04:31:18.449Z,37.82
2018-11-25T04:32:18.049Z,37.92
2018-11-25T04:33:17.949Z,37.92
2018-11-25T04:34:17.851Z,37.82
2018-11-25T04:35:17.769Z,37.92
2018-11-25T04:36:17.651Z,37.63
2018-11-25T04:37:17.550Z,38.10
2018-11-25T04:38:17.548Z,38.39
2018-11-25T04:39:17.349Z,39.15
2018-11-25T04:40:17.260Z,39.53
2018-11-25T04:41:17.152Z,39.24
2018-11-25T04:42:17.048Z,39.34
2018-11-25T04:43:16.950Z,39.24
2018-11-25T04:44:16.976Z,39.90
2018-11-25T04:45:16.770Z,40.47
2018-11-25T04:46:16.646Z,40.09
2018-11-25T04:47:16.546Z,40.66
2018-11-25T04:48:16.446Z,40.95
2018-11-25T04:49:16.348Z,41.52
2018-11-25T04:50:16.259Z,41.99
2018-11-25T04:51:16.144Z,41.89
2018-11-25T04:52:16.044Z,41.80
2018-11-25T04:53:15.943Z,42.08
2018-11-25T04:54:15.848Z,42.18
2018-11-25T04:55:15.765Z,42.18
2018-11-25T04:56:15.645Z,41.99
2018-11-25T04:57:15.543Z,41.89
2018-11-25T04:58:15.446Z,41.89
2018-11-25T04:59:15.344Z,41.99
2018-11-25T05:00:15.270Z,41.42
2018-11-25T05:01:15.141Z,41.24
2018-11-25T05:02:15.042Z,41.42
2018-11-25T05:03:14.942Z,41.33
2018-11-25T05:04:14.845Z,41.14
2018-11-25T05:05:14.758Z,41.42
2018-11-25T05:06:14.644Z,41.61
2018-11-25T05:07:14.547Z,42.08
2018-11-25T05:08:14.440Z,41.99
2018-11-25T05:09:14.346Z,42.27
2018-11-25T05:10:14.257Z,41.42
2018-11-25T05:11:14.144Z,41.99
2018-11-25T05:12:14.044Z,41.71
2018-11-25T05:13:13.943Z,42.08
2018-11-25T05:14:13.842Z,41.89
2018-11-25T05:15:13.757Z,42.08
2018-11-25T05:16:13.637Z,41.89
2018-11-25T05:17:13.541Z,41.71
2018-11-25T05:18:13.439Z,41.80
2018-11-25T05:19:13.338Z,42.18
2018-11-25T05:20:13.254Z,42.75
2018-11-25T05:21:13.136Z,42.94
2018-11-25T05:22:13.041Z,43.41
2018-11-25T05:23:12.938Z,43.32
2018-11-25T05:24:12.837Z,43.51
2018-11-25T05:25:12.756Z,43.51
2018-11-25T05:26:12.640Z,43.32
2018-11-25T05:27:12.536Z,42.85
2018-11-25T05:28:12.436Z,43.79
2018-11-25T05:29:12.334Z,43.98
2018-11-25T05:30:12.259Z,44.46
2018-11-25T05:31:12.135Z,44.36
2018-11-25T05:32:12.084Z,44.93
2018-11-25T05:33:11.939Z,45.12
2018-11-25T05:34:11.837Z,45.78
2018-11-25T05:35:11.753Z,45.88
2018-11-25T05:36:11.631Z,45.40
2018-11-25T05:37:11.533Z,45.12
2018-11-25T05:38:11.429Z,44.74
2018-11-25T05:39:11.333Z,44.65
2018-11-25T05:40:11.247Z,45.03
2018-11-25T05:41:11.127Z,45.78
2018-11-25T05:42:11.026Z,45.59
2018-11-25T05:43:10.930Z,45.69
2018-11-25T05:44:10.831Z,45.88
2018-11-25T05:45:10.744Z,45.21
2018-11-25T05:46:10.625Z,45.12
2018-11-25T05:47:10.521Z,45.78
2018-11-25T05:48:10.425Z,45.69
2018-11-25T05:49:10.321Z,45.97
2018-11-25T05:50:10.238Z,45.97
2018-11-25T05:51:10.127Z,45.31
2018-11-25T05:52:10.019Z,45.21
2018-11-25T05:53:09.926Z,45.40
2018-11-25T05:54:09.819Z,45.88
2018-11-25T05:55:09.733Z,45.50
2018-11-25T05:56:09.615Z,45.88
2018-11-25T05:57:09.520Z,45.69
2018-11-25T05:58:09.415Z,45.69
2018-11-25T05:59:09.314Z,45.69
2018-11-25T06:00:09.217Z,45.59
2018-11-25T06:01:09.232Z,45.88
2018-11-25T06:02:09.018Z,45.50
2018-11-25T06:03:08.911Z,45.69
2018-11-25T06:04:08.815Z,45.88
2018-11-25T06:05:08.728Z,45.21
2018-11-25T06:06:08.612Z,45.50
2018-11-25T06:07:08.511Z,45.31
2018-11-25T06:08:08.408Z,45.21
2018-11-25T06:09:08.310Z,45.21
2018-11-25T06:10:08.211Z,45.78
2018-11-25T06:11:08.124Z,45.50
2018-11-25T06:12:08.006Z,45.59
2018-11-25T06:13:07.909Z,45.78
2018-11-25T06:14:07.810Z,45.59
2018-11-25T06:15:07.816Z,45.88
2018-11-25T06:16:07.621Z,45.69
2018-11-25T06:17:07.503Z,45.59
2018-11-25T06:18:07.412Z,45.88
2018-11-25T06:19:07.302Z,45.69
2018-11-25T06:20:07.205Z,45.59
2018-11-25T06:21:07.117Z,45.21
2018-11-25T06:22:07.110Z,45.69
2018-11-25T06:23:06.901Z,45.78
2018-11-25T06:24:06.799Z,45.97
2018-11-25T06:25:06.700Z,45.12
2018-11-25T06:26:06.618Z,45.12
2018-11-25T06:27:06.498Z,44.65
2018-11-25T06:28:06.395Z,44.17
2018-11-25T06:29:06.398Z,43.98
2018-11-25T06:30:06.198Z,43.79
2018-11-25T06:31:06.112Z,43.04
2018-11-25T06:32:05.996Z,43.32
2018-11-25T06:33:05.893Z,43.04
2018-11-25T06:34:05.791Z,42.66
2018-11-25T06:35:05.689Z,42.54
2018-11-25T06:36:05.713Z,42.56
2018-11-25T06:37:05.488Z,42.56
2018-11-25T06:38:05.395Z,41.99
2018-11-25T06:39:05.296Z,41.80
2018-11-25T06:40:05.189Z,41.50
2018-11-25T06:41:05.105Z,41.59
2018-11-25T06:42:04.987Z,41.52
2018-11-25T06:43:04.988Z,41.21
2018-11-25T06:44:04.785Z,41.31
2018-11-25T06:45:04.692Z,41.31
2018-11-25T06:46:04.601Z,41.31
2018-11-25T06:47:04.483Z,41.24
2018-11-25T06:48:04.381Z,41.12
2018-11-25T06:49:04.279Z,41.40
2018-11-25T06:50:04.292Z,41.21
2018-11-25T06:51:04.095Z,41.31
2018-11-25T06:52:03.981Z,40.93
2018-11-25T06:53:03.881Z,40.74
2018-11-25T06:54:03.778Z,40.93
2018-11-25T06:55:03.678Z,40.64
2018-11-25T06:56:03.591Z,40.64
2018-11-25T06:57:03.579Z,40.64
2018-11-25T06:58:03.377Z,40.64
2018-11-25T06:59:03.272Z,40.45
2018-11-25T07:00:03.172Z,40.74
2018-11-25T07:01:03.090Z,40.36
2018-11-25T07:02:02.972Z,40.08
2018-11-25T07:03:02.867Z,40.08
2018-11-25T07:04:02.875Z,40.36
2018-11-25T07:05:02.674Z,40.45
2018-11-25T07:06:02.583Z,40.08
2018-11-25T07:07:02.467Z,39.79
2018-11-25T07:08:02.389Z,39.70
2018-11-25T07:09:02.274Z,39.79
2018-11-25T07:10:02.163Z,39.79
2018-11-25T07:11:02.186Z,40.17
2018-11-25T07:12:01.965Z,40.08
2018-11-25T07:13:01.859Z,39.98
2018-11-25T07:14:01.761Z,40.08
2018-11-25T07:15:01.657Z,40.45
2018-11-25T07:16:01.575Z,40.45
2018-11-25T07:17:01.458Z,40.26
2018-11-25T07:18:01.471Z,40.45
2018-11-25T07:19:01.254Z,40.36
2018-11-25T07:20:01.153Z,40.55
2018-11-25T07:21:01.070Z,40.64
2018-11-25T07:22:00.954Z,40.93
2018-11-25T07:23:00.853Z,40.64
2018-11-25T07:24:00.755Z,40.74
2018-11-25T07:25:00.758Z,41.02
2018-11-25T07:26:00.565Z,40.83
2018-11-25T07:27:00.448Z,41.21
2018-11-25T07:28:17.604Z,41.02
2018-11-25T07:29:00.246Z,41.31
2018-11-25T07:30:03.502Z,41.21
2018-11-25T07:31:00.065Z,41.31
2018-11-25T07:31:59.943Z,41.50
2018-11-25T07:32:59.843Z,41.59
2018-11-25T07:33:59.747Z,41.88
2018-11-25T07:34:59.640Z,42.37
2018-11-25T07:35:59.560Z,42.63
2018-11-25T07:36:59.440Z,43.11
2018-11-25T07:37:59.338Z,43.51
2018-11-25T07:38:59.239Z,43.41
2018-11-25T07:39:59.144Z,43.41
2018-11-25T07:40:59.052Z,43.51
2018-11-25T07:41:58.940Z,43.98
2018-11-25T07:42:58.840Z,44.34
2018-11-25T07:43:58.736Z,44.17
2018-11-25T07:44:58.638Z,44.27
2018-11-25T07:45:58.536Z,43.98
2018-11-25T07:46:59.039Z,44.65
2018-11-25T07:47:58.332Z,45.12
2018-11-25T07:48:58.233Z,45.69
2018-11-25T07:49:58.132Z,45.50
2018-11-25T07:50:58.052Z,47.11
2018-11-25T07:51:57.932Z,48.82
2018-11-25T07:52:57.829Z,49.19
2018-11-25T07:53:57.729Z,50.62
2018-11-25T07:54:57.629Z,51.28
2018-11-25T07:55:57.529Z,52.51
2018-11-25T07:56:58.635Z,53.37
2018-11-25T07:57:57.327Z,53.56
2018-11-25T07:58:57.225Z,54.69
2018-11-25T07:59:57.124Z,54.79
2018-11-25T08:00:57.030Z,54.79
2018-11-25T08:01:56.940Z,55.07
2018-11-25T08:02:56.827Z,54.13
2018-11-25T08:03:56.726Z,54.50
2018-11-25T08:04:56.629Z,55.93
2018-11-25T08:05:56.526Z,56.40
2018-11-25T08:06:56.438Z,57.25
2018-11-25T08:07:56.324Z,58.20
2018-11-25T08:08:56.222Z,58.20
2018-11-25T08:09:56.123Z,58.96
2018-11-25T08:10:56.023Z,59.05
2018-11-25T08:11:55.938Z,59.44
2018-11-25T08:12:56.510Z,59.91
2018-11-25T08:13:55.716Z,60.10
2018-11-25T08:14:55.619Z,60.86
2018-11-25T08:15:55.519Z,61.71
2018-11-25T08:16:55.443Z,61.90
2018-11-25T08:17:55.319Z,63.04
2018-11-25T08:18:55.219Z,63.51
2018-11-25T08:19:55.115Z,64.36
2018-11-25T08:20:55.018Z,64.36
2018-11-25T08:21:54.936Z,64.74
2018-11-25T08:22:54.818Z,64.55
2018-11-25T08:23:54.714Z,65.03
2018-11-25T08:24:54.613Z,65.69
2018-11-25T08:25:54.515Z,65.41
2018-11-25T08:26:54.436Z,65.88
2018-11-25T08:27:54.315Z,66.45
2018-11-25T08:28:54.218Z,65.88
2018-11-25T08:29:54.115Z,65.69
2018-11-25T08:30:54.013Z,65.69
2018-11-25T08:31:53.935Z,65.50
2018-11-25T08:32:53.813Z,65.50
2018-11-25T08:33:53.711Z,66.45
2018-11-25T08:34:53.615Z,66.26
2018-11-25T08:35:53.513Z,66.16
2018-11-25T08:36:53.432Z,65.59
2018-11-25T08:37:53.313Z,65.97
2018-11-25T08:38:53.214Z,66.35
2018-11-25T08:39:53.113Z,66.45
2018-11-25T08:40:53.010Z,67.58
2018-11-25T08:41:52.926Z,67.58
2018-11-25T08:42:52.812Z,68.54
2018-11-25T08:43:52.711Z,68.44
2018-11-25T08:44:52.610Z,69.01
2018-11-25T08:45:52.511Z,69.57
2018-11-25T08:46:52.426Z,69.48
2018-11-25T08:47:52.427Z,70.43
2018-11-25T08:48:52.214Z,70.43
2018-11-25T08:49:52.112Z,70.24
2018-11-25T08:50:52.016Z,70.05
2018-11-25T08:51:51.925Z,71.19
2018-11-25T08:52:51.812Z,73.08
2018-11-25T08:53:51.711Z,73.46
2018-11-25T08:54:51.714Z,74.03
2018-11-25T08:55:51.509Z,73.37
2018-11-25T08:56:51.428Z,72.80
2018-11-25T08:57:51.310Z,72.80
2018-11-25T08:58:51.210Z,72.80
2018-11-25T08:59:51.112Z,72.23
2018-11-25T09:00:51.011Z,72.14
2018-11-25T09:01:51.030Z,72.27
2018-11-25T09:02:50.813Z,72.45
2018-11-25T09:03:50.712Z,73.22
2018-11-25T09:04:50.610Z,73.31
2018-11-25T09:05:50.513Z,73.60
2018-11-25T09:06:50.428Z,74.07
2018-11-25T09:07:50.318Z,74.73
2018-11-25T09:08:50.312Z,74.64
2018-11-25T09:09:50.146Z,74.73
2018-11-25T09:10:50.023Z,74.83
2018-11-25T10:05:49.618Z,82.93
2018-11-25T10:06:49.510Z,82.46
2018-11-25T10:07:49.420Z,82.55
2018-11-25T10:08:49.299Z,81.79
2018-11-25T10:09:49.200Z,82.27
2018-11-25T10:10:52.693Z,81.88
2018-11-25T10:11:49.133Z,82.93
2018-11-25T10:12:48.914Z,82.08
2018-11-25T10:13:48.798Z,81.88
2018-11-25T10:14:48.696Z,81.60
2018-11-25T10:15:48.600Z,82.46
2018-11-25T10:16:48.499Z,82.08
2018-11-25T10:17:48.444Z,81.98
2018-11-25T10:18:48.300Z,82.27
2018-11-25T10:19:48.203Z,81.88
2018-11-25T10:20:48.098Z,82.27
2018-11-25T10:21:48.326Z,82.74
2018-11-25T10:22:47.920Z,82.36
2018-11-25T10:23:47.804Z,82.59
2018-11-25T10:24:47.704Z,85.06
2018-11-25T10:25:47.609Z,85.06
2018-11-25T10:26:47.505Z,86.96
2018-11-25T10:27:47.427Z,92.46
2018-11-25T10:28:47.308Z,95.98
2018-11-25T10:29:47.212Z,99.50
2018-11-25T10:30:47.113Z,98.93
2018-11-25T10:31:47.016Z,99.99
2018-11-25T10:32:46.936Z,99.99
2018-11-25T10:33:46.819Z,99.99
2018-11-25T10:34:46.721Z,99.99
2018-11-25T10:35:46.686Z,99.99
2018-11-25T10:36:46.527Z,98.88
2018-11-25T10:37:46.496Z,99.73
2018-11-25T10:38:46.348Z,99.26
2018-11-25T10:39:46.236Z,99.07
2018-11-25T10:40:46.138Z,99.44
2018-11-25T10:41:46.148Z,99.16
2018-11-25T10:42:45.959Z,98.73
2018-11-25T10:43:45.845Z,97.50
2018-11-25T10:44:45.749Z,97.02
2018-11-25T10:45:45.650Z,96.93
2018-11-25T10:46:45.553Z,95.79
2018-11-25T10:47:45.476Z,96.26
2018-11-25T10:48:45.358Z,96.26
2018-11-25T10:49:45.262Z,96.26
2018-11-25T10:50:51.102Z,96.26
2018-11-25T10:51:45.068Z,96.22
2018-11-25T10:52:44.986Z,96.88
2018-11-25T10:53:44.874Z,97.92
2018-11-25T10:54:44.777Z,99.11
2018-11-25T10:55:44.678Z,99.99
2018-11-25T10:56:44.585Z,99.99
2018-11-25T10:57:44.502Z,99.99
2018-11-25T10:58:44.393Z,99.99
2018-11-25T10:59:44.291Z,99.99
2018-11-25T11:00:44.194Z,99.99
2018-11-25T11:01:44.098Z,99.99
2018-11-25T11:02:44.020Z,99.99
2018-11-25T11:03:43.911Z,99.99
2018-11-25T11:04:43.816Z,99.99
2018-11-25T11:05:43.721Z,99.99
2018-11-25T11:06:43.624Z,99.99
2018-11-25T11:07:43.562Z,99.99
2018-11-25T11:08:43.436Z,99.99
2018-11-25T11:09:43.345Z,99.99
2018-11-25T11:10:43.251Z,99.99
2018-11-25T11:11:43.159Z,99.99
2018-11-25T11:12:43.082Z,99.99
2018-11-25T11:13:42.974Z,99.99
2018-11-25T11:14:42.883Z,99.99
2018-11-25T11:15:42.791Z,99.99
2018-11-25T11:16:42.701Z,99.99
2018-11-25T11:17:42.624Z,99.99
2018-11-25T11:18:42.518Z,99.99
2018-11-25T11:19:42.427Z,99.99
2018-11-25T11:20:42.347Z,99.99
2018-11-25T11:21:42.244Z,99.99
2018-11-25T11:22:42.173Z,99.99
2018-11-25T11:23:42.066Z,99.99
2018-11-25T11:24:41.974Z,99.99
2018-11-25T11:25:41.887Z,99.99
2018-11-25T11:26:41.794Z,99.04
2018-11-25T11:27:41.723Z,97.99
2018-11-25T11:28:41.620Z,99.08
2018-11-25T11:29:41.534Z,99.56
2018-11-25T11:30:41.435Z,99.99
2018-11-25T11:31:41.345Z,99.99
2018-11-25T11:32:41.259Z,99.99
2018-11-25T11:33:41.181Z,99.99
2018-11-25T11:34:41.076Z,99.99
2018-11-25T11:35:41.002Z,99.99
2018-11-25T11:36:40.894Z,99.99
2018-11-25T11:37:40.806Z,99.99
2018-11-25T11:38:40.730Z,99.99
2018-11-25T11:39:40.627Z,99.99
2018-11-25T11:40:40.533Z,99.99
2018-11-25T11:41:40.444Z,99.99
2018-11-25T11:42:40.356Z,99.99
2018-11-25T11:43:40.280Z,99.99
2018-11-25T11:44:40.173Z,99.99
2018-11-25T11:45:40.081Z,99.99
2018-11-25T11:46:39.989Z,99.99
2018-11-25T11:47:39.900Z,99.99
2018-11-25T11:48:39.823Z,99.99
2018-11-25T11:49:39.717Z,99.99
2018-11-25T11:50:39.625Z,99.99
2018-11-25T11:51:39.535Z,99.99
2018-11-25T11:52:39.441Z,99.99
2018-11-25T11:53:39.369Z,99.99
2018-11-25T11:54:39.258Z,99.99
2018-11-25T11:55:39.170Z,99.99
2018-11-25T11:56:40.335Z,99.99
2018-11-25T11:57:39.081Z,99.99
2018-11-25T11:58:38.904Z,99.99
2018-11-25T11:59:38.797Z,99.99
2018-11-25T12:00:38.704Z,99.99
2018-11-25T12:01:38.628Z,99.99
2018-11-25T12:02:38.518Z,99.99
2018-11-25T12:03:38.440Z,99.99
2018-11-25T12:04:38.340Z,99.99
2018-11-25T12:05:38.237Z,99.99
2018-11-25T12:06:38.146Z,99.99
2018-11-25T12:07:38.052Z,99.99
2018-11-25T12:08:37.977Z,99.99
2018-11-25T12:09:37.863Z,99.99
2018-11-25T12:10:37.785Z,99.99
2018-11-25T12:11:37.678Z,99.99
2018-11-25T12:12:37.879Z,99.99
2018-11-25T12:13:37.508Z,99.99
2018-11-25T12:14:37.399Z,99.99
2018-11-25T12:15:37.306Z,99.99
2018-11-25T12:16:37.209Z,99.99
2018-11-25T12:17:37.115Z,99.99
2018-11-25T12:18:37.040Z,99.99
2018-11-25T12:19:37.034Z,99.99
2018-11-25T12:20:36.833Z,99.99
2018-11-25T12:21:36.742Z,99.99
2018-11-25T12:22:37.738Z,99.99
2018-11-25T12:23:36.570Z,99.99
2018-11-25T12:24:36.455Z,99.99
2018-11-25T12:25:36.359Z,99.99
2018-11-25T12:26:36.370Z,99.99
2018-11-25T12:27:36.170Z,99.99
2018-11-25T12:28:36.092Z,99.99
2018-11-25T12:29:35.984Z,99.99
2018-11-25T12:30:35.885Z,99.99
2018-11-25T12:31:35.795Z,99.99
2018-11-25T12:32:35.698Z,99.99
2018-11-25T12:33:35.719Z,99.99
2018-11-25T12:34:35.503Z,99.99
2018-11-25T12:35:35.409Z,99.99
2018-11-25T12:36:35.310Z,99.99
2018-11-25T12:37:36.064Z,99.99
2018-11-25T12:38:35.135Z,99.99
2018-11-25T12:39:35.031Z,99.99
2018-11-25T12:40:35.035Z,99.99
2018-11-25T12:41:34.837Z,99.99
2018-11-25T12:42:34.735Z,99.99
2018-11-25T12:43:34.654Z,99.99
2018-11-25T12:44:34.541Z,99.99
2018-11-25T12:45:34.447Z,99.99
2018-11-25T12:46:34.356Z,99.99
2018-11-25T12:47:34.369Z,99.99
2018-11-25T12:48:34.173Z,99.99
2018-11-25T12:49:34.061Z,99.99
2018-11-25T12:50:33.964Z,99.99
2018-11-25T12:51:33.873Z,99.99
2018-11-25T12:52:33.775Z,99.99
2018-11-25T12:53:33.694Z,99.99
2018-11-25T12:54:33.684Z,99.99
2018-11-25T12:55:33.485Z,99.99
2018-11-25T12:56:33.386Z,99.99
2018-11-25T12:57:33.290Z,99.99
2018-11-25T12:58:33.210Z,99.99
2018-11-25T12:59:33.098Z,99.99
2018-11-25T13:00:33.010Z,99.99
2018-11-25T13:01:33.008Z,99.99
2018-11-25T13:02:32.809Z,99.99
2018-11-25T13:03:32.728Z,99.99
2018-11-25T13:04:32.617Z,99.99
2018-11-25T13:05:32.524Z,99.99
2018-11-25T13:06:32.423Z,99.99
2018-11-25T13:07:32.328Z,99.99
2018-11-25T13:08:32.334Z,99.99
2018-11-25T13:09:32.152Z,99.99
2018-11-25T13:10:32.035Z,99.99
2018-11-25T13:11:31.940Z,99.99
2018-11-25T13:12:31.841Z,99.99
2018-11-25T13:13:31.766Z,99.99
2018-11-25T13:14:31.651Z,99.99
2018-11-25T13:15:31.658Z,99.99
2018-11-25T13:16:31.459Z,99.99
2018-11-25T13:17:31.361Z,99.99
2018-11-25T13:18:31.287Z,99.99
2018-11-25T13:19:31.184Z,99.99
2018-11-25T13:20:31.067Z,99.99
2018-11-25T13:21:31.106Z,99.99
2018-11-25T13:22:30.876Z,99.99
2018-11-25T13:23:30.787Z,99.99
2018-11-25T13:24:30.699Z,99.99
2018-11-25T13:25:30.583Z,99.99
2018-11-25T13:26:30.508Z,99.99
2018-11-25T13:27:30.389Z,99.99
2018-11-25T13:28:30.299Z,99.99
2018-11-25T13:29:30.211Z,99.99
2018-11-25T13:30:30.103Z,99.99
2018-11-25T13:31:30.004Z,99.99
2018-11-25T13:32:29.913Z,99.99
2018-11-25T13:33:29.815Z,99.99
2018-11-25T13:34:29.725Z,99.99
2018-11-25T13:35:29.613Z,99.99
2018-11-25T13:36:29.514Z,99.99
2018-11-25T13:37:29.419Z,99.99
2018-11-25T13:38:29.322Z,99.99
2018-11-25T13:39:30.249Z,99.99
2018-11-25T13:40:29.124Z,99.99
2018-11-25T13:41:29.027Z,99.99
2018-11-25T13:42:28.928Z,99.99
2018-11-25T13:43:28.833Z,99.99
2018-11-25T13:44:28.750Z,99.99
2018-11-25T13:45:28.638Z,99.99